Time;durP1;ratioP1;P1;durP2;ratioP2;P2;SDS_P1;SDS_P2;PMS_P1;PMS_P2;Temp;Humidity;BMP_temperature;BMP_pressure;BME280_temperature;BME280_humidity;BME280_pressure;Samples;Min_cycle;Max_cycle;Signal;HPM_P1;HPM_P2
2022/09/15 00:00:23;;;;;;;8.73;1.60;;;14.60;99.90;;;;;;5033905;28;20519;-89
2022/09/15 00:02:49;;;;;;;7.15;2.47;;;14.60;99.90;;;;;;5050463;28;20190;-88
2022/09/15 00:05:17;;;;;;;10.07;1.80;;;14.60;99.90;;;;;;5050329;28;20531;-88
2022/09/15 00:07:43;;;;;;;4.07;1.30;;;14.60;99.90;;;;;;5033245;28;20110;-88
2022/09/15 00:10:10;;;;;;;5.28;1.30;;;14.70;99.90;;;;;;5050487;28;20470;-89
2022/09/15 00:12:36;;;;;;;9.23;1.35;;;14.70;99.90;;;;;;5049717;28;20054;-89
2022/09/15 00:15:02;;;;;;;4.60;1.15;;;15.10;99.90;;;;;;5033450;28;20071;-89
2022/09/15 00:17:28;;;;;;;4.43;1.20;;;14.80;99.90;;;;;;5049914;28;20466;-89
2022/09/15 00:19:57;;;;;;;3.90;1.40;;;14.70;99.90;;;;;;5049726;28;20091;-88
2022/09/15 00:22:22;;;;;;;5.75;1.88;;;14.70;99.90;;;;;;5050117;28;20055;-89
2022/09/15 00:24:48;;;;;;;7.88;1.77;;;14.70;99.90;;;;;;5016352;28;20044;-89
2022/09/15 00:27:15;;;;;;;3.45;1.23;;;14.70;99.90;;;;;;5034021;28;20048;-89
2022/09/15 00:29:41;;;;;;;5.32;1.60;;;15.90;99.90;;;;;;5033149;28;20445;-89
2022/09/15 00:32:06;;;;;;;4.53;1.63;;;14.70;99.90;;;;;;5033201;28;20101;-88
2022/09/15 00:34:32;;;;;;;5.85;1.42;;;15.20;99.90;;;;;;5049472;28;20048;-89
2022/09/15 00:36:58;;;;;;;8.15;1.17;;;14.70;99.90;;;;;;5049752;28;20099;-89
2022/09/15 00:39:24;;;;;;;8.25;1.75;;;14.80;99.90;;;;;;5050082;28;20492;-88
2022/09/15 00:41:50;;;;;;;6.50;0.90;;;14.80;99.90;;;;;;5015879;28;20506;-89
2022/09/15 00:44:15;;;;;;;8.38;1.00;;;14.80;99.90;;;;;;5032908;28;20139;-89
2022/09/15 00:46:44;;;;;;;6.38;1.60;;;14.70;99.90;;;;;;5048999;28;20047;-88
2022/09/15 00:49:24;;;;;;;4.57;1.30;;;14.80;99.90;;;;;;5049308;28;20046;-88
2022/09/15 00:51:58;;;;;;;10.43;1.23;;;14.80;99.90;;;;;;5049384;28;20086;-88
2022/09/15 00:54:29;;;;;;;6.07;1.45;;;14.80;99.90;;;;;;5049107;28;20112;-88
2022/09/15 00:57:00;;;;;;;3.67;0.77;;;14.80;99.90;;;;;;5049848;28;20045;-88
2022/09/15 00:59:28;;;;;;;4.13;0.65;;;15.60;99.90;;;;;;5048785;28;20053;-89
2022/09/15 01:02:02;;;;;;;10.27;1.00;;;15.20;99.90;;;;;;5049286;28;20052;-88
2022/09/15 01:04:28;;;;;;;4.40;0.90;;;14.80;99.90;;;;;;5033018;28;20437;-89
2022/09/15 01:06:57;;;;;;;5.80;0.98;;;14.90;99.90;;;;;;5049331;28;20040;-88
2022/09/15 01:09:44;;;;;;;4.22;0.40;;;14.90;99.90;;;;;;5049345;28;20071;-88
2022/09/15 01:12:10;;;;;;;3.85;0.82;;;14.90;99.90;;;;;;5048913;28;20045;-89
2022/09/15 01:14:36;;;;;;;4.47;0.45;;;14.90;99.90;;;;;;5032924;28;20120;-89
2022/09/15 01:17:07;;;;;;;5.72;1.33;;;16.20;99.90;;;;;;5015861;28;20113;-89
2022/09/15 01:19:36;;;;;;;7.35;0.73;;;15.00;99.90;;;;;;5048941;28;20055;-88
2022/09/15 01:22:13;;;;;;;16.58;2.45;;;15.00;99.90;;;;;;5049439;28;20095;-88
2022/09/15 01:25:17;;;;;;;5.28;0.90;;;15.00;99.90;;;;;;5049061;28;20547;-88
2022/09/15 01:28:25;;;;;;;6.65;0.80;;;15.00;99.90;;;;;;5049039;28;20045;-89
2022/09/15 01:31:23;;;;;;;11.40;0.98;;;15.00;99.90;;;;;;5036130;28;20052;-89
2022/09/15 01:34:06;;;;;;;3.28;0.60;;;15.00;99.90;;;;;;5046022;28;20060;-89
2022/09/15 01:36:54;;;;;;;7.00;1.33;;;15.00;99.90;;;;;;5049391;28;20056;-88
2022/09/15 01:39:27;;;;;;;10.80;0.93;;;15.00;99.90;;;;;;5048926;28;20519;-88
2022/09/15 01:41:58;;;;;;;;;;;15.00;99.90;;;;;;5049005;28;20041;-88
2022/09/15 01:44:28;;;;;;;4.93;1.38;;;15.00;99.90;;;;;;5049138;28;19928;-88
2022/09/15 01:47:01;;;;;;;9.07;2.28;;;15.50;99.90;;;;;;5048320;28;20044;-89
2022/09/15 01:49:35;;;;;;;12.50;2.17;;;15.00;99.90;;;;;;5032103;28;20044;-88
2022/09/15 01:52:01;;;;;;;4.97;0.73;;;15.00;99.90;;;;;;5048886;28;20503;-89
2022/09/15 01:54:37;;;;;;;6.97;0.93;;;15.00;99.90;;;;;;5050293;28;20067;-88
2022/09/15 01:57:03;;;;;;;4.82;0.75;;;15.00;99.90;;;;;;5053519;28;20437;-89
2022/09/15 01:59:30;;;;;;;6.70;0.82;;;15.00;99.90;;;;;;5035385;28;20048;-88
2022/09/15 02:02:08;;;;;;;5.32;1.40;;;15.00;99.90;;;;;;5036075;28;20055;-89
2022/09/15 02:04:37;;;;;;;4.82;1.15;;;15.00;99.90;;;;;;5052697;28;20467;-90
2022/09/15 02:07:48;;;;;;;7.07;0.85;;;15.00;99.90;;;;;;5052491;28;20041;-88
2022/09/15 02:10:31;;;;;;;4.30;0.95;;;14.90;99.90;;;;;;5042664;28;20139;-88
2022/09/15 02:13:20;;;;;;;8.23;0.70;;;14.80;99.90;;;;;;5029262;28;20052;-87
2022/09/15 02:15:56;;;;;;;11.77;1.10;;;14.60;99.90;;;;;;5051764;28;20045;-87
2022/09/15 02:18:33;;;;;;;6.60;1.33;;;14.60;99.90;;;;;;5052622;28;20113;-87
2022/09/15 02:21:17;;;;;;;9.85;1.15;;;15.10;99.90;;;;;;5051110;28;20071;-87
2022/09/15 02:23:53;;;;;;;6.18;0.65;;;15.30;99.90;;;;;;5046230;28;20067;-88
2022/09/15 02:26:23;;;;;;;5.10;0.88;;;15.10;99.90;;;;;;5052232;28;20076;-88
2022/09/15 02:28:51;;;;;;;9.02;0.73;;;14.30;99.90;;;;;;5051343;28;20040;-88
2022/09/15 02:31:18;;;;;;;2.47;0.52;;;14.20;99.90;;;;;;5052159;28;20593;-88
2022/09/15 02:33:50;;;;;;;4.28;0.45;;;14.20;99.90;;;;;;5034913;28;20044;-88
2022/09/15 02:36:19;;;;;;;4.28;0.95;;;14.10;99.90;;;;;;5035526;28;20041;-89
2022/09/15 02:38:59;;;;;;;8.75;1.50;;;14.40;99.90;;;;;;5052346;28;20041;-89
2022/09/15 02:41:26;;;;;;;7.97;0.55;;;14.00;99.90;;;;;;5048919;28;20515;-88
2022/09/15 02:43:51;;;;;;;6.53;0.63;;;13.90;99.90;;;;;;5035357;28;20040;-88
2022/09/15 02:46:21;;;;;;;3.97;0.82;;;13.80;99.90;;;;;;5051461;28;20048;-88
2022/09/15 02:48:47;;;;;;;3.40;0.68;;;14.60;99.90;;;;;;5051880;28;20094;-88
2022/09/15 02:51:15;;;;;;;9.73;0.77;;;13.80;99.90;;;;;;5051274;28;20032;-88
2022/09/15 02:53:43;;;;;;;6.68;0.80;;;13.80;99.90;;;;;;5051355;28;20036;-88
2022/09/15 02:56:09;;;;;;;8.85;0.85;;;13.80;99.90;;;;;;5018704;28;20225;-88
2022/09/15 02:58:35;;;;;;;7.68;1.42;;;14.40;99.90;;;;;;5051141;28;20079;-88
2022/09/15 03:01:06;;;;;;;6.35;0.57;;;13.80;99.90;;;;;;5051719;28;20052;-89
2022/09/15 03:03:33;;;;;;;5.00;0.82;;;13.90;99.90;;;;;;5050722;28;20040;-88
2022/09/15 03:06:15;;;;;;;5.57;0.70;;;13.90;99.90;;;;;;5051397;28;20044;-88
2022/09/15 03:08:49;;;;;;;7.47;1.00;;;13.70;99.90;;;;;;5034411;28;20094;-88
2022/09/15 03:11:16;;;;;;;3.80;0.63;;;13.80;99.90;;;;;;5034863;28;20044;-86
2022/09/15 03:13:42;;;;;;;9.15;1.00;;;13.80;99.90;;;;;;5051654;28;20055;-87
2022/09/15 03:16:13;;;;;;;7.20;0.90;;;14.30;99.90;;;;;;5034680;28;20418;-87
2022/09/15 03:18:40;;;;;;;7.20;0.90;;;13.70;99.90;;;;;;5051395;28;20033;-88
2022/09/15 03:21:08;;;;;;;8.63;0.93;;;13.70;99.90;;;;;;5050575;28;20091;-87
2022/09/15 03:23:34;;;;;;;6.53;1.23;;;13.70;99.90;;;;;;5051043;28;20045;-87
2022/09/15 03:26:01;;;;;;;7.00;0.70;;;13.80;99.90;;;;;;5050846;28;20457;-88
2022/09/15 03:28:27;;;;;;;6.20;0.98;;;13.80;99.90;;;;;;5050746;28;20040;-88
2022/09/15 03:30:53;;;;;;;6.63;1.00;;;13.70;99.90;;;;;;5051161;28;20060;-88
2022/09/15 03:33:20;;;;;;;12.40;1.42;;;14.20;99.90;;;;;;5050267;28;20043;-88
2022/09/15 03:35:47;;;;;;;7.22;0.80;;;14.30;99.90;;;;;;5050916;28;20495;-87
2022/09/15 03:38:13;;;;;;;5.85;0.93;;;13.70;99.90;;;;;;5033754;28;20123;-87
2022/09/15 03:40:41;;;;;;;8.00;1.13;;;14.30;99.90;;;;;;5050569;28;20051;-88
2022/09/15 03:43:11;;;;;;;5.13;0.85;;;13.80;99.90;;;;;;5034344;28;20199;-87
2022/09/15 03:45:37;;;;;;;10.27;1.10;;;13.80;99.90;;;;;;5050293;28;20044;-88
2022/09/15 03:48:06;;;;;;;9.20;0.75;;;13.80;99.90;;;;;;5051092;28;20455;-88
2022/09/15 03:50:33;;;;;;;5.88;1.02;;;14.00;99.90;;;;;;5049888;28;20045;-87
2022/09/15 03:53:02;;;;;;;8.23;1.10;;;13.90;99.90;;;;;;5050506;28;20037;-88
2022/09/15 03:55:28;;;;;;;4.68;0.98;;;13.90;99.90;;;;;;5050153;28;20078;-88
2022/09/15 03:57:54;;;;;;;4.47;0.80;;;14.50;99.90;;;;;;5033618;28;20044;-88
2022/09/15 04:00:21;;;;;;;6.47;1.00;;;13.90;99.90;;;;;;5034015;28;20040;-88
2022/09/15 04:02:47;;;;;;;11.55;1.30;;;14.50;99.90;;;;;;5049866;28;20098;-88
2022/09/15 04:05:12;;;;;;;9.75;1.23;;;13.90;99.90;;;;;;5050649;28;20044;-88
2022/09/15 04:07:41;;;;;;;8.20;1.45;;;13.90;99.90;;;;;;5049195;28;20052;-87
2022/09/15 04:10:08;;;;;;;2.90;0.75;;;13.90;99.90;;;;;;5050352;28;20041;-88
2022/09/15 04:12:35;;;;;;;7.95;1.00;;;13.90;99.90;;;;;;5050119;28;20041;-88
2022/09/15 04:15:01;;;;;;;5.32;1.10;;;14.10;99.90;;;;;;5049978;28;20041;-88
2022/09/15 04:17:27;;;;;;;9.48;1.75;;;13.90;99.90;;;;;;5049316;28;20131;-88
2022/09/15 04:19:53;;;;;;;8.32;1.42;;;15.10;99.90;;;;;;5049763;28;20124;-88
2022/09/15 04:22:19;;;;;;;5.82;1.55;;;13.90;99.90;;;;;;5033556;28;20457;-88
2022/09/15 04:24:46;;;;;;;6.53;1.20;;;14.00;99.90;;;;;;5049409;28;20574;-88
2022/09/15 04:27:13;;;;;;;18.65;2.50;;;13.90;99.90;;;;;;5050346;28;20059;-88
2022/09/15 04:29:39;;;;;;;6.15;1.10;;;13.90;99.90;;;;;;5033303;28;20048;-88
2022/09/15 04:32:05;;;;;;;8.90;1.27;;;13.80;99.90;;;;;;5049868;28;20044;-89
2022/09/15 04:34:30;;;;;;;9.15;1.00;;;13.80;99.90;;;;;;5054405;28;20045;-89
2022/09/15 04:36:56;;;;;;;7.85;1.70;;;15.00;99.90;;;;;;5039270;28;20044;-89
2022/09/15 04:39:22;;;;;;;11.25;1.15;;;14.30;99.90;;;;;;5033891;28;20442;-89
2022/09/15 04:41:47;;;;;;;8.77;1.17;;;13.70;99.90;;;;;;5033300;28;20489;-89
2022/09/15 04:44:13;;;;;;;10.95;1.20;;;14.90;99.90;;;;;;5050483;28;20414;-90
2022/09/15 04:46:39;;;;;;;7.20;0.73;;;14.00;99.90;;;;;;5049388;28;20042;-90
2022/09/15 04:49:04;;;;;;;8.35;1.23;;;13.70;99.90;;;;;;5049652;28;20040;-88
2022/09/15 04:51:30;;;;;;;5.97;1.27;;;13.50;99.90;;;;;;5049328;28;20043;-91
2022/09/15 04:53:58;;;;;;;8.25;1.30;;;14.10;99.90;;;;;;5049924;28;20090;-89
2022/09/15 04:56:24;;;;;;;9.52;0.95;;;13.50;99.90;;;;;;5034227;28;20037;-91
2022/09/15 04:58:53;;;;;;;5.32;0.70;;;13.70;99.90;;;;;;5033655;28;20127;-90
2022/09/15 05:01:25;;;;;;;8.15;0.82;;;14.50;99.90;;;;;;5050061;28;20044;-89
2022/09/15 05:03:53;;;;;;;5.73;1.00;;;13.60;99.90;;;;;;5049319;28;20044;-90
2022/09/15 05:06:25;;;;;;;5.93;0.88;;;13.60;99.90;;;;;;5033311;28;20047;-91
2022/09/15 05:08:53;;;;;;;10.00;1.27;;;13.80;99.90;;;;;;5050040;28;20044;-90
2022/09/15 05:11:20;;;;;;;3.28;0.73;;;13.50;99.90;;;;;;5051263;28;20490;-92
2022/09/15 05:13:46;;;;;;;8.02;1.00;;;13.50;99.90;;;;;;5032778;28;20079;-87
2022/09/15 05:16:18;;;;;;;12.30;1.70;;;13.60;99.90;;;;;;5048669;28;20132;-92
2022/09/15 05:18:46;;;;;;;6.10;1.02;;;13.40;99.90;;;;;;5049767;28;20153;-89
2022/09/15 05:21:14;;;;;;;6.03;0.60;;;13.40;99.90;;;;;;5032285;28;20057;-90
2022/09/15 05:23:40;;;;;;;10.02;0.82;;;13.30;99.90;;;;;;5050026;28;20104;-92
2022/09/15 05:26:18;;;;;;;8.68;1.20;;;13.30;99.90;;;;;;5050690;28;20036;-94
2022/09/15 05:28:44;;;;;;;6.57;0.98;;;13.20;99.90;;;;;;5054106;28;20045;-92
2022/09/15 05:31:17;;;;;;;13.75;0.88;;;13.20;99.90;;;;;;5038622;28;20087;-91
2022/09/15 05:33:44;;;;;;;19.48;3.78;;;13.30;99.90;;;;;;5037705;28;20044;-91
2022/09/15 05:36:10;;;;;;;8.10;1.10;;;13.30;99.90;;;;;;5054939;28;20056;-91
2022/09/15 05:38:36;;;;;;;7.38;1.05;;;14.30;99.90;;;;;;5037817;28;20125;-91
2022/09/15 05:41:07;;;;;;;7.90;1.02;;;13.40;99.90;;;;;;5037656;28;20048;-91
2022/09/15 05:43:34;;;;;;;7.22;0.70;;;13.50;99.90;;;;;;5037285;28;20098;-93
2022/09/15 05:46:00;;;;;;;11.23;0.90;;;13.50;99.90;;;;;;5054395;28;20037;-92
2022/09/15 05:48:26;;;;;;;5.85;1.00;;;13.60;99.90;;;;;;5054286;28;20064;-90
2022/09/15 05:50:53;;;;;;;5.82;1.02;;;14.30;99.90;;;;;;5039130;28;20044;-89
2022/09/15 05:53:20;;;;;;;9.48;1.80;;;13.70;99.90;;;;;;5053731;28;20055;-91
2022/09/15 05:55:46;;;;;;;6.50;1.00;;;13.70;99.90;;;;;;5052751;28;20041;-86
2022/09/15 05:58:13;;;;;;;5.82;0.82;;;13.90;99.90;;;;;;5055868;28;20412;-94
2022/09/15 06:00:40;;;;;;;7.32;1.10;;;13.90;99.90;;;;;;5038165;28;20044;-94
2022/09/15 06:03:06;;;;;;;3.15;0.77;;;14.00;99.90;;;;;;5022392;28;20499;-95
2022/09/15 06:05:32;;;;;;;6.72;0.93;;;14.30;99.90;;;;;;5022431;28;20464;-93
2022/09/15 06:07:58;;;;;;;9.10;0.98;;;14.00;99.90;;;;;;5054534;28;20086;-94
2022/09/15 06:10:24;;;;;;;10.20;1.35;;;15.00;99.90;;;;;;5037742;28;20048;-95
2022/09/15 06:12:54;;;;;;;7.53;1.13;;;14.10;99.90;;;;;;5021247;28;20037;-95
2022/09/15 06:15:20;;;;;;;9.35;1.13;;;14.10;99.90;;;;;;5021196;28;20123;-94
2022/09/15 06:17:46;;;;;;;7.45;0.82;;;14.20;99.90;;;;;;5021437;28;20426;-95
2022/09/15 06:20:12;;;;;;;3.95;0.73;;;14.50;99.90;;;;;;5038911;28;20093;-93
2022/09/15 06:22:38;;;;;;;6.00;1.05;;;14.90;99.90;;;;;;5037814;28;20127;-95
2022/09/15 06:25:04;;;;;;;7.43;1.48;;;14.40;99.90;;;;;;5054027;28;20152;-92
2022/09/15 06:27:30;;;;;;;6.85;1.05;;;14.50;99.90;;;;;;5021516;28;20048;-94
2022/09/15 06:29:56;;;;;;;7.03;1.33;;;14.50;99.90;;;;;;5037043;28;20040;-94
2022/09/15 06:32:25;;;;;;;6.97;1.50;;;14.60;99.90;;;;;;5038843;28;20047;-94
2022/09/15 06:34:50;;;;;;;7.60;1.60;;;14.60;99.90;;;;;;5037285;28;20036;-91
2022/09/15 06:37:17;;;;;;;7.50;1.30;;;14.70;99.90;;;;;;5037182;28;20059;-87
2022/09/15 06:39:43;;;;;;;6.15;1.75;;;14.70;99.90;;;;;;5052554;28;20090;-91
2022/09/15 06:42:10;;;;;;;4.13;0.68;;;14.80;99.90;;;;;;5036570;28;20051;-92
2022/09/15 06:44:36;;;;;;;8.23;0.80;;;14.80;99.90;;;;;;5052880;28;20044;-92
2022/09/15 06:47:02;;;;;;;6.72;0.80;;;14.80;99.90;;;;;;5053313;28;20044;-91
2022/09/15 06:49:31;;;;;;;8.05;2.08;;;14.80;99.90;;;;;;5070933;28;20086;-92
2022/09/15 06:51:57;;;;;;;4.20;0.68;;;14.80;99.90;;;;;;5035367;28;20407;-91
2022/09/15 06:54:23;;;;;;;3.08;0.70;;;14.80;99.90;;;;;;5037746;28;20045;-91
2022/09/15 06:56:49;;;;;;;6.82;0.45;;;14.80;99.90;;;;;;5053739;28;20086;-91
2022/09/15 06:59:15;;;;;;;3.10;0.40;;;16.00;99.90;;;;;;5054973;28;20139;-92
2022/09/15 07:01:42;;;;;;;4.55;0.45;;;14.80;99.90;;;;;;5039301;28;20127;-92
2022/09/15 07:04:08;;;;;;;7.43;0.57;;;14.80;99.90;;;;;;5037986;28;20044;-92
2022/09/15 07:06:37;;;;;;;2.53;0.55;;;15.20;99.90;;;;;;5053042;28;20048;-92
2022/09/15 07:09:04;;;;;;;5.82;0.55;;;15.80;99.90;;;;;;5038739;28;20067;-92
2022/09/15 07:11:31;;;;;;;3.95;0.70;;;14.90;99.90;;;;;;5050348;28;20037;-91
2022/09/15 07:13:57;;;;;;;3.90;0.70;;;15.10;99.90;;;;;;5048707;28;20123;-92
2022/09/15 07:16:24;;;;;;;4.20;0.60;;;15.30;99.90;;;;;;5064205;28;20048;-92
2022/09/15 07:18:53;;;;;;;5.88;0.50;;;15.50;99.90;;;;;;5047014;28;20052;-91
2022/09/15 07:21:20;;;;;;;5.80;0.73;;;15.70;99.90;;;;;;5063003;28;20067;-90
2022/09/15 07:23:47;;;;;;;4.78;0.50;;;15.80;99.90;;;;;;5025133;28;20043;-91
2022/09/15 07:26:20;;;;;;;8.30;0.65;;;15.80;99.90;;;;;;5052148;28;20051;-90
2022/09/15 07:28:56;;;;;;;7.18;0.75;;;15.90;99.90;;;;;;5053676;28;20041;-92
2022/09/15 07:31:24;;;;;;;11.77;1.75;;;15.90;99.90;;;;;;5053044;28;20142;-91
2022/09/15 07:33:50;;;;;;;3.15;0.73;;;15.90;99.90;;;;;;5035512;28;20044;-91
2022/09/15 07:36:16;;;;;;;10.40;0.82;;;15.90;99.90;;;;;;5018765;28;20453;-91
2022/09/15 07:38:44;;;;;;;6.05;0.98;;;15.90;99.90;;;;;;5034833;28;20114;-91
2022/09/15 07:41:16;;;;;;;6.97;0.60;;;15.90;99.90;;;;;;5051882;28;20084;-85
2022/09/15 07:43:47;;;;;;;2.83;0.52;;;15.90;99.90;;;;;;5050518;28;20043;-88
2022/09/15 07:46:13;;;;;;;2.85;0.50;;;15.80;99.90;;;;;;5017766;28;20134;-93
2022/09/15 07:48:39;;;;;;;4.90;0.50;;;15.80;99.90;;;;;;5051325;28;20040;-90
2022/09/15 07:51:04;;;;;;;5.22;0.90;;;16.20;99.90;;;;;;5050225;28;20056;-90
2022/09/15 07:53:30;;;;;;;4.60;0.82;;;15.60;99.90;;;;;;5034456;28;20033;-91
2022/09/15 07:55:56;;;;;;;4.50;0.80;;;15.50;99.90;;;;;;5019507;28;20402;-91
2022/09/15 07:58:23;;;;;;;5.25;1.17;;;15.50;99.90;;;;;;5036915;28;20051;-90
2022/09/15 08:00:49;;;;;;;3.55;0.68;;;15.50;99.90;;;;;;5020184;28;20036;-90
2022/09/15 08:03:15;;;;;;;7.57;0.85;;;15.50;99.90;;;;;;5053994;28;20072;-89
2022/09/15 08:05:41;;;;;;;5.60;1.00;;;15.60;99.90;;;;;;5052028;28;20079;-90
2022/09/15 08:08:07;;;;;;;5.97;1.00;;;15.70;99.90;;;;;;5034786;28;20051;-92
2022/09/15 08:10:33;;;;;;;9.00;1.30;;;15.80;99.90;;;;;;5051397;28;20043;-90
2022/09/15 08:12:59;;;;;;;4.85;1.20;;;15.90;99.90;;;;;;5050833;28;20044;-90
2022/09/15 08:15:25;;;;;;;4.85;1.05;;;16.00;99.90;;;;;;5051903;28;20131;-88
2022/09/15 08:17:51;;;;;;;3.70;0.95;;;16.00;99.90;;;;;;5050460;28;20044;-91
2022/09/15 08:20:17;;;;;;;4.93;1.20;;;16.20;99.90;;;;;;5051040;28;20564;-91
2022/09/15 08:22:44;;;;;;;4.65;0.60;;;16.30;99.90;;;;;;5050878;28;20048;-91
2022/09/15 08:25:13;;;;;;;7.97;1.52;;;16.40;99.90;;;;;;5034806;28;20123;-91
2022/09/15 08:27:39;;;;;;;5.60;1.42;;;16.50;99.90;;;;;;5033837;28;20051;-91
2022/09/15 08:30:06;;;;;;;8.18;1.10;;;16.60;99.90;;;;;;5050009;28;20040;-91
2022/09/15 08:32:32;;;;;;;3.72;0.52;;;16.70;99.90;;;;;;5033985;28;20128;-91
2022/09/15 08:34:58;;;;;;;7.85;0.90;;;17.00;99.90;;;;;;5049761;28;20403;-90
2022/09/15 08:37:23;;;;;;;8.02;1.10;;;17.00;99.90;;;;;;5050748;28;20041;-91
2022/09/15 08:39:50;;;;;;;7.88;1.23;;;17.10;99.90;;;;;;5050909;28;20044;-92
2022/09/15 08:42:18;;;;;;;6.43;1.40;;;17.10;99.90;;;;;;5034307;28;20119;-92
2022/09/15 08:44:59;;;;;;;10.93;1.10;;;17.10;99.90;;;;;;5051122;28;20526;-93
2022/09/15 08:47:36;;;;;;;6.25;1.00;;;17.10;99.90;;;;;;5050791;28;20503;-92
2022/09/15 08:50:10;;;;;;;2.70;0.68;;;17.00;99.90;;;;;;5035470;28;20407;-93
2022/09/15 08:52:49;;;;;;;6.10;0.90;;;17.10;99.90;;;;;;5050746;28;20051;-91
2022/09/15 08:55:41;;;;;;;4.72;0.82;;;17.40;99.90;;;;;;5050360;28;20049;-91
2022/09/15 08:58:18;;;;;;;6.07;0.50;;;17.70;99.90;;;;;;5043324;28;20056;-90
2022/09/15 09:00:47;;;;;;;4.35;0.70;;;17.90;99.90;;;;;;5033400;28;20040;-89
2022/09/15 09:03:51;;;;;;;6.97;1.15;;;17.80;99.90;;;;;;5050575;28;20123;-93
2022/09/15 09:06:32;;;;;;;8.90;0.80;;;17.60;99.90;;;;;;5052956;28;20076;-92
2022/09/15 09:09:14;;;;;;;4.45;0.90;;;17.20;99.90;;;;;;5036008;28;20051;-96
2022/09/15 09:12:11;;;;;;;5.72;1.17;;;17.30;99.90;;;;;;5053932;28;20115;-96
2022/09/15 09:15:03;;;;;;;7.88;1.55;;;16.40;99.90;;;;;;5074247;28;20052;-94
2022/09/15 09:17:47;;;;;;;6.70;0.85;;;16.30;99.90;;;;;;5057257;28;20056;-94
2022/09/15 09:20:19;;;;;;;6.07;0.88;;;16.10;99.90;;;;;;5074665;28;20053;-93
2022/09/15 09:22:48;;;;;;;4.45;0.70;;;16.00;99.90;;;;;;5075055;28;20040;-93
2022/09/15 09:25:18;;;;;;;6.32;0.65;;;16.00;99.90;;;;;;5074710;28;20058;-92
2022/09/15 09:27:44;;;;;;;7.68;0.98;;;16.00;99.90;;;;;;5058199;28;20028;-93
2022/09/15 09:30:23;;;;;;;3.22;0.80;;;15.90;99.90;;;;;;5058056;28;20060;-93
2022/09/15 09:33:14;;;;;;;8.10;1.30;;;15.90;99.90;;;;;;5075418;28;20064;-95
2022/09/15 09:35:48;;;;;;;5.82;0.82;;;15.80;99.90;;;;;;5074631;28;20059;-94
2022/09/15 09:38:20;;;;;;;6.13;0.80;;;15.70;99.90;;;;;;5074154;28;20025;-92
2022/09/15 09:40:46;;;;;;;5.67;1.17;;;15.80;99.90;;;;;;5072625;28;20040;-91
2022/09/15 09:43:12;;;;;;;7.15;1.15;;;15.60;99.90;;;;;;5056955;28;20029;-92
2022/09/15 09:45:38;;;;;;;5.68;0.68;;;16.10;99.90;;;;;;5072005;28;20088;-92
2022/09/15 09:48:24;;;;;;;5.55;0.93;;;15.50;99.90;;;;;;5020719;28;20044;-92
2022/09/15 09:50:50;;;;;;;3.60;0.70;;;15.80;99.90;;;;;;5053087;28;20052;-92
2022/09/15 09:53:25;;;;;;;3.72;0.82;;;15.70;99.90;;;;;;5053582;28;20037;-93
2022/09/15 09:56:11;;;;;;;3.85;0.70;;;15.70;99.90;;;;;;5037010;28;20116;-92
2022/09/15 09:58:37;;;;;;;3.30;0.90;;;15.70;99.90;;;;;;5053129;28;20091;-90
2022/09/15 10:01:12;;;;;;;3.85;0.50;;;15.80;99.90;;;;;;5034654;28;20086;-91
2022/09/15 10:03:40;;;;;;;2.88;0.50;;;15.90;99.90;;;;;;5052546;28;20052;-92
2022/09/15 10:06:10;;;;;;;5.05;0.80;;;15.90;99.90;;;;;;5051944;28;20392;-91
2022/09/15 10:08:37;;;;;;;5.00;1.00;;;16.00;99.90;;;;;;5033302;28;20051;-91
2022/09/15 10:11:09;;;;;;;4.88;1.08;;;17.10;99.90;;;;;;5033991;28;20045;-92
2022/09/15 10:13:48;;;;;;;4.22;0.77;;;16.30;99.90;;;;;;5049744;28;20440;-92
2022/09/15 10:16:18;;;;;;;11.05;0.82;;;16.50;99.90;;;;;;5037718;28;20029;-92
2022/09/15 10:18:44;;;;;;;5.75;1.00;;;16.60;99.90;;;;;;5053633;28;20070;-92
2022/09/15 10:21:13;;;;;;;4.13;1.10;;;16.80;99.90;;;;;;5052853;28;20067;-91
2022/09/15 10:23:39;;;;;;;5.32;0.98;;;16.50;99.90;;;;;;5053464;28;20045;-91
2022/09/15 10:26:13;;;;;;;6.03;0.75;;;16.60;99.90;;;;;;5052827;28;20094;-91
2022/09/15 10:28:39;;;;;;;4.35;0.52;;;16.40;99.90;;;;;;5053664;28;20044;-92
2022/09/15 10:31:25;;;;;;;4.03;0.82;;;16.40;99.90;;;;;;5019469;28;20127;-90
2022/09/15 10:33:51;;;;;;;7.00;1.02;;;16.20;99.90;;;;;;5036277;28;20045;-90
2022/09/15 10:36:30;;;;;;;8.73;0.80;;;16.80;99.90;;;;;;5036280;28;20059;-89
2022/09/15 10:39:16;;;;;;;7.80;0.70;;;15.90;99.90;;;;;;5019271;28;20029;-88
2022/09/15 10:41:58;;;;;;;4.70;0.93;;;15.80;99.90;;;;;;5035825;28;20049;-87
2022/09/15 10:44:47;;;;;;;2.63;0.60;;;15.80;99.90;;;;;;5052035;28;20512;-88
2022/09/15 10:47:34;;;;;;;5.75;0.70;;;15.80;99.90;;;;;;5035777;28;20052;-90
2022/09/15 10:50:22;;;;;;;5.82;0.68;;;15.80;99.90;;;;;;5036215;28;20083;-89
2022/09/15 10:52:56;;;;;;;5.38;1.13;;;15.90;99.90;;;;;;5036049;28;20048;-91
2022/09/15 10:55:34;;;;;;;5.93;0.60;;;16.00;99.90;;;;;;5052461;28;20840;-90
2022/09/15 10:58:05;;;;;;;2.72;0.45;;;16.10;99.90;;;;;;5052591;28;20037;-90
2022/09/15 11:00:50;;;;;;;2.63;0.40;;;16.20;99.90;;;;;;5051771;28;20048;-90
2022/09/15 11:03:36;;;;;;;4.05;0.55;;;16.30;99.90;;;;;;5035920;28;20052;-90
2022/09/15 11:06:08;;;;;;;4.72;0.57;;;16.30;99.90;;;;;;5035938;28;20056;-90
2022/09/15 11:08:49;;;;;;;2.50;0.63;;;16.30;99.90;;;;;;5051569;28;20052;-90
2022/09/15 11:11:29;;;;;;;5.32;0.63;;;16.30;99.90;;;;;;5035769;28;20044;-90
2022/09/15 11:14:16;;;;;;;5.07;0.68;;;16.40;99.90;;;;;;5052270;28;20047;-91
2022/09/15 11:16:48;;;;;;;5.20;0.82;;;16.50;99.90;;;;;;5035784;28;20101;-90
2022/09/15 11:19:16;;;;;;;3.03;0.65;;;16.60;99.90;;;;;;5052214;28;20036;-91
2022/09/15 11:21:48;;;;;;;3.83;0.73;;;16.70;99.90;;;;;;5035003;28;20049;-90
2022/09/15 11:24:24;;;;;;;3.63;0.53;;;16.80;99.90;;;;;;5052107;28;20041;-90
2022/09/15 11:27:18;;;;;;;8.55;1.33;;;16.90;99.90;;;;;;5051850;28;20048;-89
2022/09/15 11:30:05;;;;;;;5.50;0.73;;;17.10;99.90;;;;;;5052223;28;20089;-90
2022/09/15 11:32:44;;;;;;;4.93;0.70;;;17.20;99.90;;;;;;5052781;28;20048;-92
2022/09/15 11:35:35;;;;;;;4.25;0.63;;;17.40;99.90;;;;;;5035847;28;20053;-94
2022/09/15 11:38:33;;;;;;;4.32;0.70;;;17.70;99.90;;;;;;5052057;28;20761;-86
2022/09/15 11:41:17;;;;;;;4.57;0.60;;;17.80;99.90;;;;;;5050575;28;20060;-88
2022/09/15 11:43:49;;;;;;;2.72;0.40;;;17.90;99.90;;;;;;5034244;28;20037;-87
2022/09/15 11:46:22;;;;;;;2.83;0.60;;;18.10;99.90;;;;;;5052487;28;20523;-92
2022/09/15 11:49:01;;;;;;;4.53;0.50;;;17.50;99.90;;;;;;5039427;28;20044;-95
2022/09/15 11:51:32;;;;;;;3.25;0.52;;;18.00;99.90;;;;;;5054267;28;20052;-93
2022/09/15 11:54:06;;;;;;;6.68;0.95;;;17.80;99.90;;;;;;5039791;28;20137;-92
2022/09/15 11:56:41;;;;;;;4.47;0.70;;;17.70;99.90;;;;;;5054448;28;20047;-90
2022/09/15 11:59:42;;;;;;;6.97;1.10;;;17.80;99.90;;;;;;5073621;28;20037;-92
2022/09/15 12:02:27;;;;;;;3.25;0.60;;;17.90;99.90;;;;;;5061329;28;20083;-93
2022/09/15 12:05:22;;;;;;;3.65;0.57;;;18.00;99.90;;;;;;5068678;28;20055;-91
2022/09/15 12:08:00;;;;;;;4.07;0.28;;;18.10;99.90;;;;;;5050412;28;20098;-92
2022/09/15 12:10:32;;;;;;;3.45;1.13;;;18.10;99.90;;;;;;5041587;28;20094;-91
2022/09/15 12:13:00;;;;;;;4.93;0.40;;;18.30;99.90;;;;;;5037926;28;20041;-91
2022/09/15 12:15:26;;;;;;;4.78;0.50;;;19.00;99.90;;;;;;5037266;28;20036;-92
2022/09/15 12:17:57;;;;;;;1.38;0.40;;;18.70;99.90;;;;;;5051458;28;20067;-92
2022/09/15 12:20:45;;;;;;;2.70;0.50;;;18.70;99.90;;;;;;5051899;28;20056;-93
2022/09/15 12:23:22;;;;;;;2.85;0.85;;;18.60;99.90;;;;;;5050539;28;20059;-89
2022/09/15 12:25:58;;;;;;;5.18;0.50;;;18.50;99.90;;;;;;5051200;28;20556;-90
2022/09/15 12:28:26;;;;;;;4.75;1.05;;;18.50;99.90;;;;;;5052133;28;20055;-92
2022/09/15 12:31:13;;;;;;;3.88;0.80;;;18.40;99.90;;;;;;5038558;28;20067;-92
2022/09/15 12:33:41;;;;;;;5.32;0.68;;;18.40;99.90;;;;;;5051167;28;20049;-92
2022/09/15 12:36:32;;;;;;;4.32;0.75;;;18.40;99.90;;;;;;5051620;28;20052;-92
2022/09/15 12:38:59;;;;;;;6.93;0.95;;;18.50;99.90;;;;;;5049928;28;20044;-92
2022/09/15 12:41:26;;;;;;;6.80;1.42;;;18.50;99.90;;;;;;5034723;28;20051;-90
2022/09/15 12:44:04;;;;;;;7.50;0.70;;;18.50;99.90;;;;;;5050859;28;20578;-93
2022/09/15 12:46:29;;;;;;;3.72;0.50;;;18.70;99.90;;;;;;5034023;28;20048;-93
2022/09/15 12:49:01;;;;;;;9.80;0.75;;;19.00;99.90;;;;;;5034265;28;20063;-92
2022/09/15 12:51:28;;;;;;;5.00;0.63;;;19.20;99.90;;;;;;5050420;28;20072;-93
2022/09/15 12:53:57;;;;;;;10.35;0.90;;;19.20;99.90;;;;;;5034641;28;20048;-93
2022/09/15 12:56:28;;;;;;;3.42;0.60;;;19.10;99.90;;;;;;5049871;28;20458;-91
2022/09/15 12:58:55;;;;;;;5.00;0.98;;;19.00;99.90;;;;;;5034130;28;20044;-91
2022/09/15 13:01:23;;;;;;;4.45;0.45;;;18.70;99.90;;;;;;5017877;28;20044;-92
2022/09/15 13:03:58;;;;;;;6.30;0.98;;;18.40;99.90;;;;;;5050454;28;20093;-91
2022/09/15 13:06:34;;;;;;;3.47;0.60;;;18.20;99.90;;;;;;5034123;28;20047;-91